Time;durP1;ratioP1;P1;durP2;ratioP2;P2;SDS_P1;SDS_P2;PMS_P1;PMS_P2;Temp;Humidity;BMP_temperature;BMP_pressure;BME280_temperature;BME280_humidity;BME280_pressure;Samples;Min_cycle;Max_cycle;Signal;HPM_P1;HPM_P2
2022/07/14 00:00:15;;;;;;;2.83;1.55;;;23.70;96.60;;;;;;4975373;28;20023;-50
2022/07/14 00:02:53;;;;;;;1.95;1.73;;;23.70;97.10;;;;;;4974679;28;20033;-52
2022/07/14 00:05:54;;;;;;;2.17;1.30;;;23.70;97.80;;;;;;4975833;28;20027;-52
2022/07/14 00:08:20;;;;;;;;;;;23.60;98.40;;;;;;4976247;28;20045;-61
2022/07/14 00:10:46;;;;;;;2.00;1.48;;;23.50;98.50;;;;;;4974528;28;19989;-61
2022/07/14 00:13:12;;;;;;;5.35;1.50;;;23.50;98.50;;;;;;4975903;28;20038;-62
2022/07/14 00:15:37;;;;;;;3.03;1.27;;;23.50;97.70;;;;;;4975696;28;20031;-61
2022/07/14 00:18:03;;;;;;;4.13;1.48;;;23.40;97.90;;;;;;4975835;28;20057;-61
2022/07/14 00:20:29;;;;;;;3.03;1.50;;;23.40;98.30;;;;;;4975445;28;20042;-61
2022/07/14 00:22:58;;;;;;;3.42;1.63;;;23.30;98.50;;;;;;4975344;28;20015;-61
2022/07/14 00:25:25;;;;;;;2.78;1.60;;;23.30;98.40;;;;;;4975610;28;20034;-61
2022/07/14 00:27:51;;;;;;;2.40;1.60;;;23.30;98.60;;;;;;4973994;28;20089;-61
2022/07/14 00:30:17;;;;;;;2.92;1.30;;;23.30;98.50;;;;;;4973965;28;20038;-61
2022/07/14 00:32:42;;;;;;;4.03;1.40;;;23.30;98.70;;;;;;4974047;28;20023;-62
2022/07/14 00:35:09;;;;;;;3.40;1.83;;;23.30;99.20;;;;;;4975318;28;20027;-61
2022/07/14 00:37:34;;;;;;;1.30;1.20;;;23.30;99.90;;;;;;4975087;28;20031;-61
2022/07/14 00:40:04;;;;;;;13.10;6.18;;;23.30;99.90;;;;;;4974418;28;20022;-62
2022/07/14 00:42:40;;;;;;;16.13;9.23;;;23.30;99.90;;;;;;4975180;28;20023;-61
2022/07/14 00:45:07;;;;;;;4.53;3.40;;;23.30;99.90;;;;;;4973829;28;20054;-61
2022/07/14 00:47:33;;;;;;;2.60;2.00;;;23.30;99.90;;;;;;4973684;28;20449;-61
2022/07/14 00:49:59;;;;;;;1.58;1.23;;;23.30;99.90;;;;;;4973915;28;20054;-60
2022/07/14 00:52:27;;;;;;;4.38;1.50;;;23.20;99.90;;;;;;4973988;28;20023;-61
2022/07/14 00:54:54;;;;;;;1.70;1.30;;;23.30;99.90;;;;;;4973616;28;20063;-61
2022/07/14 00:57:20;;;;;;;1.70;1.60;;;23.20;99.90;;;;;;4974210;28;20035;-61
2022/07/14 00:59:46;;;;;;;2.15;1.60;;;23.10;99.90;;;;;;4974090;28;20030;-61
2022/07/14 01:02:12;;;;;;;3.92;1.48;;;23.10;99.90;;;;;;4974029;28;20023;-61
2022/07/14 01:04:38;;;;;;;3.08;1.60;;;23.10;99.90;;;;;;4974098;28;20113;-60
2022/07/14 01:07:03;;;;;;;3.42;1.58;;;23.10;99.90;;;;;;4975136;28;20037;-61
2022/07/14 01:09:29;;;;;;;3.58;1.67;;;23.10;99.90;;;;;;4974870;28;20039;-62
2022/07/14 01:11:54;;;;;;;1.95;1.60;;;23.10;99.90;;;;;;4973559;28;20038;-62
2022/07/14 01:14:20;;;;;;;3.13;1.27;;;23.00;99.90;;;;;;4975143;28;20469;-61
2022/07/14 01:16:46;;;;;;;3.70;1.83;;;23.00;99.90;;;;;;4973639;28;20023;-53
2022/07/14 01:19:12;;;;;;;2.88;2.10;;;23.00;99.90;;;;;;4974598;28;20023;-54
2022/07/14 01:21:37;;;;;;;5.35;1.83;;;23.00;99.90;;;;;;4973543;28;20022;-54
2022/07/14 01:24:03;;;;;;;2.67;1.50;;;22.90;99.90;;;;;;4973458;28;20023;-51
2022/07/14 01:26:29;;;;;;;1.90;1.58;;;22.90;99.90;;;;;;4973315;28;20051;-52
2022/07/14 01:28:54;;;;;;;3.55;1.75;;;22.90;99.90;;;;;;4973467;28;20030;-55
2022/07/14 01:31:20;;;;;;;1.95;1.48;;;22.90;99.90;;;;;;4974459;28;20113;-51
2022/07/14 01:33:45;;;;;;;2.78;1.60;;;23.00;99.90;;;;;;4973378;28;20035;-52
2022/07/14 01:36:11;;;;;;;1.85;1.50;;;23.00;99.90;;;;;;4973231;28;20089;-52
2022/07/14 01:38:37;;;;;;;2.78;1.70;;;22.90;99.90;;;;;;4968242;28;20038;-51
2022/07/14 01:41:02;;;;;;;2.70;1.50;;;22.80;99.90;;;;;;4955114;28;20110;-49
2022/07/14 01:43:32;;;;;;;2.30;1.23;;;22.70;99.90;;;;;;4953868;28;20110;-53
2022/07/14 01:45:58;;;;;;;1.60;1.45;;;22.60;99.90;;;;;;4955076;28;20027;-52
2022/07/14 01:48:23;;;;;;;3.33;1.50;;;22.60;99.90;;;;;;4953771;28;20023;-54
2022/07/14 01:50:49;;;;;;;1.50;1.40;;;22.60;99.90;;;;;;4953732;28;20482;-54
2022/07/14 01:53:15;;;;;;;1.95;1.73;;;22.50;99.90;;;;;;4958089;28;20027;-52
2022/07/14 01:55:40;;;;;;;3.50;1.60;;;22.50;99.90;;;;;;4974149;28;20027;-50
2022/07/14 01:58:06;;;;;;;5.47;1.35;;;22.50;99.90;;;;;;4973397;28;20142;-50
2022/07/14 02:00:32;;;;;;;1.98;1.48;;;22.50;99.90;;;;;;4972958;28;20026;-53
2022/07/14 02:02:57;;;;;;;2.42;1.50;;;22.40;99.90;;;;;;4972923;28;20493;-54
2022/07/14 02:05:23;;;;;;;3.60;1.65;;;22.40;99.90;;;;;;4974712;28;20023;-49
2022/07/14 02:07:49;;;;;;;2.08;1.50;;;22.40;99.90;;;;;;4974129;28;20038;-49
2022/07/14 02:12:58;;;;;;;2.83;1.35;;;22.30;99.90;;;;;;4978085;28;20497;-53
2022/07/14 02:15:24;;;;;;;2.40;1.80;;;22.30;99.90;;;;;;4977764;28;20031;-49
2022/07/14 02:17:49;;;;;;;1.67;1.25;;;22.30;99.90;;;;;;4976639;28;20049;-50
2022/07/14 02:20:15;;;;;;;2.47;1.75;;;22.30;99.90;;;;;;4976418;28;20027;-49
2022/07/14 02:22:41;;;;;;;2.92;1.55;;;22.30;99.90;;;;;;4976310;28;20031;-54
2022/07/14 02:25:07;;;;;;;3.10;1.75;;;22.30;99.90;;;;;;4976283;28;20053;-50
2022/07/14 02:27:33;;;;;;;2.45;1.40;;;22.30;99.90;;;;;;4977413;28;20034;-50
2022/07/14 02:29:59;;;;;;;5.43;2.00;;;22.20;99.90;;;;;;4976309;28;20030;-53
2022/07/14 02:32:24;;;;;;;5.75;1.73;;;22.20;99.90;;;;;;4977155;28;20033;-51
2022/07/14 02:34:50;;;;;;;1.98;1.27;;;22.10;99.90;;;;;;4976074;28;20465;-51
2022/07/14 02:37:16;;;;;;;3.28;1.50;;;22.00;99.90;;;;;;4975933;28;20027;-50
2022/07/14 02:39:42;;;;;;;1.80;1.67;;;22.10;99.90;;;;;;4977156;28;20058;-53
2022/07/14 02:42:07;;;;;;;3.90;1.42;;;22.10;99.90;;;;;;4977204;28;20074;-51
2022/07/14 02:44:33;;;;;;;2.50;1.60;;;22.10;99.90;;;;;;4977140;28;20138;-50
2022/07/14 02:46:58;;;;;;;3.78;2.20;;;22.30;99.90;;;;;;4975866;28;20038;-50
2022/07/14 02:49:33;;;;;;;1.90;1.60;;;22.30;99.90;;;;;;4974723;28;20034;-51
2022/07/14 02:51:59;;;;;;;3.35;1.80;;;22.20;99.90;;;;;;4962413;28;20082;-53
2022/07/14 02:54:24;;;;;;;4.57;1.80;;;22.20;99.90;;;;;;4975700;28;20493;-51
2022/07/14 02:56:50;;;;;;;4.65;1.90;;;22.10;99.90;;;;;;4976490;28;20062;-50
2022/07/14 02:59:16;;;;;;;1.60;1.50;;;22.00;99.90;;;;;;4975601;28;20046;-49
2022/07/14 03:01:41;;;;;;;2.90;1.60;;;22.00;99.90;;;;;;4976430;28;20026;-53
2022/07/14 03:04:07;;;;;;;1.73;1.42;;;22.00;99.90;;;;;;4975932;28;20115;-51
2022/07/14 03:06:33;;;;;;;3.05;2.03;;;22.00;99.90;;;;;;4975418;28;20067;-49
2022/07/14 03:08:58;;;;;;;3.58;1.95;;;21.90;99.90;;;;;;4976766;28;20030;-51
2022/07/14 03:11:24;;;;;;;2.97;1.98;;;21.80;99.90;;;;;;4976122;28;20109;-51
2022/07/14 03:13:50;;;;;;;2.60;1.92;;;21.80;99.90;;;;;;4976633;28;20027;-52
2022/07/14 03:16:15;;;;;;;2.75;1.92;;;21.80;99.90;;;;;;4975455;28;20031;-51
2022/07/14 03:18:41;;;;;;;3.00;1.75;;;21.70;99.90;;;;;;4976094;28;20023;-48
2022/07/14 03:21:08;;;;;;;3.17;2.03;;;21.80;99.90;;;;;;4976031;28;20050;-52
2022/07/14 03:23:34;;;;;;;4.32;2.00;;;21.60;99.90;;;;;;4975148;28;20065;-52
2022/07/14 03:26:00;;;;;;;6.97;2.00;;;21.40;99.90;;;;;;4975469;28;20046;-50
2022/07/14 03:28:25;;;;;;;2.85;2.00;;;21.30;99.90;;;;;;4974989;28;20031;-52
2022/07/14 03:30:56;;;;;;;3.53;2.00;;;21.30;99.90;;;;;;4976238;28;20478;-48
2022/07/14 03:33:22;;;;;;;3.97;1.70;;;21.30;99.90;;;;;;4974912;28;20034;-49
2022/07/14 03:35:49;;;;;;;3.08;1.85;;;21.40;99.90;;;;;;4976458;28;20033;-53
2022/07/14 03:38:14;;;;;;;5.45;2.22;;;21.30;99.90;;;;;;4975255;28;20074;-51
2022/07/14 03:40:40;;;;;;;3.28;1.70;;;21.30;99.90;;;;;;4974751;28;20023;-48
2022/07/14 03:43:06;;;;;;;2.83;2.05;;;21.30;99.90;;;;;;4975252;28;20023;-50
2022/07/14 03:45:32;;;;;;;3.78;2.35;;;21.30;99.90;;;;;;4976296;28;20054;-49
2022/07/14 03:47:57;;;;;;;4.82;1.98;;;21.30;99.90;;;;;;4974653;28;20023;-52
2022/07/14 03:50:23;;;;;;;3.50;1.95;;;21.30;99.90;;;;;;4974467;28;20032;-53
2022/07/14 03:52:49;;;;;;;2.25;1.83;;;21.30;99.90;;;;;;4975755;28;20031;-52
2022/07/14 03:55:14;;;;;;;2.10;1.90;;;21.30;99.90;;;;;;4973954;28;20402;-52
2022/07/14 03:57:40;;;;;;;1.95;1.75;;;21.30;99.90;;;;;;4955161;29;20031;-53
2022/07/14 04:00:06;;;;;;;5.03;2.08;;;21.30;99.90;;;;;;4956365;28;20109;-49
2022/07/14 04:02:32;;;;;;;3.13;2.30;;;21.30;99.90;;;;;;4956585;28;20102;-50
2022/07/14 04:04:58;;;;;;;4.78;2.22;;;21.30;99.90;;;;;;4955016;29;20087;-49
2022/07/14 04:07:24;;;;;;;2.15;1.95;;;21.20;99.90;;;;;;4955154;28;20031;-48
2022/07/14 04:09:50;;;;;;;3.90;2.03;;;21.10;99.90;;;;;;4956131;28;20035;-51
2022/07/14 04:12:16;;;;;;;3.58;2.10;;;21.00;99.90;;;;;;4954950;28;20122;-51
2022/07/14 04:14:42;;;;;;;6.55;2.40;;;21.10;99.90;;;;;;4956065;28;20031;-48
2022/07/14 04:17:07;;;;;;;3.60;1.75;;;21.20;99.90;;;;;;4956098;28;20158;-48
2022/07/14 04:19:33;;;;;;;2.58;2.15;;;21.30;99.90;;;;;;4954856;28;20034;-50
2022/07/14 04:21:59;;;;;;;3.75;2.20;;;21.40;99.90;;;;;;4955607;28;20027;-50
2022/07/14 04:24:25;;;;;;;9.30;2.00;;;21.40;99.90;;;;;;4955961;28;20032;-50
2022/07/14 04:26:51;;;;;;;2.38;2.10;;;21.40;99.90;;;;;;4955003;28;20086;-51
2022/07/14 04:29:17;;;;;;;2.92;2.10;;;21.40;99.90;;;;;;4955951;28;20031;-52
2022/07/14 04:31:43;;;;;;;3.92;1.83;;;21.50;99.90;;;;;;4954296;28;20023;-51
2022/07/14 04:34:10;;;;;;;2.85;2.10;;;21.50;99.90;;;;;;4954632;28;20082;-50
2022/07/14 04:36:36;;;;;;;3.78;2.40;;;21.60;99.90;;;;;;4954851;29;20027;-53
2022/07/14 04:39:04;;;;;;;2.72;2.08;;;21.60;99.90;;;;;;4955950;28;20054;-48
2022/07/14 04:41:29;;;;;;;2.22;1.92;;;21.60;99.90;;;;;;4954679;28;20031;-52
2022/07/14 04:43:55;;;;;;;4.57;2.35;;;21.60;99.90;;;;;;4954414;28;20023;-53
2022/07/14 04:46:21;;;;;;;2.70;2.28;;;21.60;99.90;;;;;;4954465;28;20035;-50
2022/07/14 04:54:15;;;;;;;3.65;2.58;;;21.40;99.90;;;;;;4955561;29;20074;-53
2022/07/14 04:56:40;;;;;;;3.30;2.10;;;21.40;99.90;;;;;;4954498;28;20054;-54
2022/07/14 04:59:06;;;;;;;4.88;2.30;;;21.40;99.90;;;;;;4955810;28;20058;-48
2022/07/14 05:01:33;;;;;;;4.53;2.28;;;21.40;99.90;;;;;;4954603;28;20034;-53
2022/07/14 05:03:58;;;;;;;6.95;2.50;;;21.50;99.90;;;;;;4955438;28;20146;-51
2022/07/14 05:06:24;;;;;;;5.30;2.83;;;21.60;99.90;;;;;;4954152;29;20122;-51
2022/07/14 05:08:49;;;;;;;2.30;2.10;;;21.70;99.90;;;;;;4955307;28;20074;-50
2022/07/14 05:11:15;;;;;;;3.40;2.00;;;21.80;99.90;;;;;;4955271;28;20032;-50
2022/07/14 05:13:41;;;;;;;2.53;1.98;;;21.80;99.90;;;;;;4954709;28;20203;-48
2022/07/14 05:16:06;;;;;;;5.57;2.58;;;21.80;99.90;;;;;;4954049;28;20023;-52
2022/07/14 05:18:32;;;;;;;2.80;2.50;;;21.80;99.90;;;;;;4954883;28;20039;-52
2022/07/14 05:20:58;;;;;;;3.40;2.70;;;21.80;99.90;;;;;;4956014;28;20023;-51
2022/07/14 05:23:23;;;;;;;2.83;2.47;;;21.80;99.90;;;;;;4954881;28;20139;-55
2022/07/14 05:25:50;;;;;;;5.03;2.55;;;22.00;99.90;;;;;;4955248;28;20024;-53
2022/07/14 05:28:15;;;;;;;5.68;2.30;;;22.10;99.90;;;;;;4955274;28;20086;-52
2022/07/14 05:30:41;;;;;;;3.42;2.13;;;22.20;99.90;;;;;;4955245;28;20027;-51
2022/07/14 05:33:07;;;;;;;3.65;2.42;;;22.50;99.90;;;;;;4955282;28;20024;-50
2022/07/14 05:35:33;;;;;;;2.70;2.20;;;22.70;99.90;;;;;;4953986;28;20027;-48
2022/07/14 05:37:59;;;;;;;4.65;2.20;;;22.90;99.90;;;;;;4955557;28;20041;-48
2022/07/14 05:40:24;;;;;;;5.75;2.30;;;23.10;99.90;;;;;;4954174;28;20023;-52
2022/07/14 05:42:50;;;;;;;3.55;2.10;;;23.20;99.90;;;;;;4956971;28;20023;-51
2022/07/14 05:45:15;;;;;;;3.10;2.13;;;23.30;99.90;;;;;;4957724;28;20078;-48
2022/07/14 05:47:42;;;;;;;3.90;2.47;;;23.20;99.90;;;;;;4959171;28;20027;-50
2022/07/14 05:50:09;;;;;;;3.22;2.63;;;23.20;99.90;;;;;;4958757;28;20028;-53
2022/07/14 05:52:34;;;;;;;2.88;2.38;;;23.20;99.90;;;;;;4957918;28;20065;-51
2022/07/14 05:55:01;;;;;;;4.30;2.40;;;23.30;99.90;;;;;;4958624;28;20059;-48
2022/07/14 05:57:27;;;;;;;3.45;2.20;;;23.30;99.90;;;;;;4969243;28;20033;-49
2022/07/14 05:59:52;;;;;;;4.65;1.90;;;23.40;99.90;;;;;;4977954;28;20114;-52
2022/07/14 06:02:18;;;;;;;3.20;2.50;;;23.50;99.90;;;;;;4975037;28;20102;-50
2022/07/14 06:04:44;;;;;;;3.13;2.00;;;23.60;99.90;;;;;;4976732;28;20019;-49
2022/07/14 06:07:09;;;;;;;3.65;2.08;;;23.70;99.90;;;;;;4977728;28;20069;-51
2022/07/14 06:09:38;;;;;;;5.03;2.10;;;23.70;99.90;;;;;;4977661;28;20494;-52
2022/07/14 06:12:05;;;;;;;5.15;2.70;;;23.60;99.90;;;;;;4977791;28;20037;-51
2022/07/14 06:14:47;;;;;;;4.68;2.20;;;23.60;99.90;;;;;;4977347;28;20030;-50
2022/07/14 06:17:15;;;;;;;5.63;2.45;;;23.70;99.90;;;;;;4976392;28;20398;-50
2022/07/14 06:19:40;;;;;;;10.68;2.72;;;23.50;99.90;;;;;;4976409;28;20034;-48
2022/07/14 06:22:06;;;;;;;7.38;2.75;;;23.60;99.90;;;;;;4977490;28;20030;-48
2022/07/14 06:24:39;;;;;;;6.35;2.60;;;23.70;99.90;;;;;;4976567;28;20022;-49
2022/07/14 06:27:05;;;;;;;4.82;2.90;;;23.80;99.90;;;;;;4976845;28;20022;-50
2022/07/14 06:29:30;;;;;;;3.30;2.20;;;23.90;99.90;;;;;;4977367;28;20030;-49
2022/07/14 06:31:56;;;;;;;6.93;2.22;;;24.00;99.90;;;;;;4977400;28;20110;-49
2022/07/14 06:34:23;;;;;;;7.50;2.80;;;23.90;99.90;;;;;;4976364;28;20030;-49
2022/07/14 06:36:48;;;;;;;6.07;2.70;;;23.90;99.90;;;;;;4976369;28;20493;-54
2022/07/14 06:39:14;;;;;;;4.03;2.55;;;23.80;99.90;;;;;;4977124;28;20019;-57
2022/07/14 06:41:41;;;;;;;6.43;3.15;;;23.80;99.90;;;;;;4976051;28;20019;-57
2022/07/14 06:44:07;;;;;;;4.38;2.42;;;23.70;99.90;;;;;;4976113;28;20114;-58
2022/07/14 06:47:21;;;;;;;3.65;2.40;;;23.80;99.90;;;;;;4975809;28;20125;-58
2022/07/14 06:49:47;;;;;;;5.22;2.55;;;23.80;99.90;;;;;;4976710;28;20037;-58
2022/07/14 06:52:12;;;;;;;2.97;2.17;;;23.90;99.90;;;;;;4976328;28;20027;-58
2022/07/14 06:54:38;;;;;;;2.90;2.60;;;24.10;99.90;;;;;;4974952;28;20113;-52
2022/07/14 06:57:04;;;;;;;3.72;2.30;;;24.20;99.90;;;;;;4976499;28;20069;-48
2022/07/14 06:59:30;;;;;;;3.60;2.72;;;24.30;99.90;;;;;;4975906;28;20090;-48
2022/07/14 07:01:55;;;;;;;5.10;2.40;;;24.30;99.90;;;;;;4977055;28;20022;-51
2022/07/14 07:04:23;;;;;;;5.05;2.40;;;24.30;99.90;;;;;;4975834;28;20019;-51
2022/07/14 07:06:48;;;;;;;4.50;2.63;;;24.30;99.90;;;;;;4975805;28;20058;-51
2022/07/14 07:09:16;;;;;;;5.90;2.80;;;24.10;99.90;;;;;;4975250;28;20063;-54
2022/07/14 07:11:45;;;;;;;4.15;2.70;;;23.90;99.90;;;;;;4975765;28;20031;-53
2022/07/14 07:14:12;;;;;;;6.53;2.90;;;23.90;99.90;;;;;;4976942;28;20022;-50
2022/07/14 07:16:38;;;;;;;6.40;3.17;;;24.00;99.90;;;;;;4975682;28;20023;-51
2022/07/14 07:19:04;;;;;;;7.03;2.92;;;24.00;99.90;;;;;;4971126;28;20050;-51
2022/07/14 07:21:30;;;;;;;5.30;3.10;;;24.10;99.90;;;;;;4957171;28;20030;-54
2022/07/14 07:23:56;;;;;;;3.35;2.78;;;24.20;99.90;;;;;;4957169;28;20019;-53
2022/07/14 07:26:25;;;;;;;3.15;2.83;;;24.30;99.90;;;;;;4955805;28;20035;-50
2022/07/14 07:28:54;;;;;;;5.50;3.10;;;24.30;99.90;;;;;;4955886;28;20023;-49
2022/07/14 07:31:33;;;;;;;4.57;2.80;;;24.30;99.90;;;;;;4967034;28;20054;-49
2022/07/14 07:34:03;;;;;;;4.07;2.30;;;24.40;99.90;;;;;;4976469;28;20027;-52
2022/07/14 07:39:50;;;;;;;;;;;24.60;99.90;;;;;;4957450;29;20026;-54
2022/07/14 07:42:33;;;;;;;3.95;2.88;;;24.60;99.90;;;;;;4956756;28;19906;-55
2022/07/14 07:45:00;;;;;;;8.77;3.13;;;24.60;99.90;;;;;;4956874;28;20032;-51
2022/07/14 07:47:26;;;;;;;4.82;3.42;;;24.80;99.90;;;;;;4955580;28;20042;-54
2022/07/14 07:49:53;;;;;;;5.28;2.70;;;25.10;99.90;;;;;;4956640;28;20031;-55
2022/07/14 07:52:19;;;;;;;6.35;2.40;;;25.60;99.90;;;;;;4956741;28;20027;-54
2022/07/14 07:54:45;;;;;;;8.13;3.22;;;25.90;99.90;;;;;;4956405;28;20091;-52
2022/07/14 07:58:07;;;;;;;4.65;2.72;;;26.00;99.90;;;;;;4955132;29;20118;-49
2022/07/14 08:00:32;;;;;;;;;;;25.80;99.90;;;;;;4955487;28;20055;-49
2022/07/14 08:03:00;;;;;;;5.35;2.80;;;25.70;99.90;;;;;;4970294;28;19957;-54
2022/07/14 08:05:28;;;;;;;4.25;2.55;;;25.70;99.90;;;;;;4974510;28;20019;-52
2022/07/14 08:07:54;;;;;;;6.00;3.08;;;25.50;99.90;;;;;;4975348;28;20043;-54
2022/07/14 08:10:20;;;;;;;5.25;2.97;;;25.40;99.90;;;;;;4974112;28;20068;-52
2022/07/14 08:12:46;;;;;;;5.07;3.28;;;25.30;99.90;;;;;;4975516;28;20106;-53
2022/07/14 08:15:13;;;;;;;3.28;2.97;;;25.20;99.90;;;;;;4975374;28;20027;-50
2022/07/14 08:17:39;;;;;;;6.65;2.78;;;25.10;99.90;;;;;;4975304;28;20027;-52
2022/07/14 08:20:07;;;;;;;2.97;2.58;;;25.00;99.90;;;;;;4975405;28;20033;-53
2022/07/14 08:22:33;;;;;;;8.18;3.03;;;24.90;99.90;;;;;;4974251;28;20029;-52
2022/07/14 08:24:59;;;;;;;5.88;2.85;;;25.00;99.90;;;;;;4974192;28;20030;-51
2022/07/14 08:27:26;;;;;;;5.75;3.00;;;25.00;99.90;;;;;;4973948;28;20117;-53
2022/07/14 08:30:18;;;;;;;3.75;2.78;;;25.10;99.90;;;;;;4975032;28;20037;-54
2022/07/14 08:32:46;;;;;;;5.82;3.15;;;25.10;99.90;;;;;;4973506;28;20030;-52
2022/07/14 08:35:14;;;;;;;7.43;3.13;;;25.10;99.90;;;;;;4975394;28;20026;-50
2022/07/14 08:37:40;;;;;;;6.47;3.13;;;25.20;99.90;;;;;;4975039;28;20077;-49
2022/07/14 08:40:09;;;;;;;9.05;3.35;;;25.40;99.90;;;;;;4974067;28;20054;-50
2022/07/14 08:42:36;;;;;;;5.80;3.38;;;25.40;99.90;;;;;;4972100;28;20023;-54
2022/07/14 08:45:09;;;;;;;6.38;3.45;;;24.70;99.90;;;;;;4973784;28;20093;-54
2022/07/14 08:47:37;;;;;;;6.95;2.90;;;24.90;99.90;;;;;;4964174;28;20047;-63
2022/07/14 08:50:07;;;;;;;5.25;3.50;;;25.10;99.90;;;;;;4955437;28;20102;-62
2022/07/14 08:52:52;;;;;;;4.53;3.50;;;25.10;99.90;;;;;;4955432;28;20027;-63
2022/07/14 08:55:19;;;;;;;11.80;3.90;;;25.20;99.90;;;;;;4954764;28;20027;-63
2022/07/14 08:57:45;;;;;;;4.90;3.30;;;25.30;99.90;;;;;;4954199;28;20035;-54
2022/07/14 09:00:25;;;;;;;4.85;3.20;;;24.80;99.90;;;;;;4954346;28;20031;-61
2022/07/14 09:02:53;;;;;;;4.18;3.10;;;24.90;99.90;;;;;;4954116;28;20027;-61
2022/07/14 09:05:19;;;;;;;7.00;3.00;;;25.20;99.90;;;;;;4954059;28;20019;-61
2022/07/14 09:11:17;;;;;;;6.93;3.83;;;25.20;99.90;;;;;;4955589;29;20147;-61
2022/07/14 09:13:43;;;;;;;7.55;3.42;;;24.60;99.90;;;;;;4955201;28;20030;-61
2022/07/14 09:16:23;;;;;;;7.07;3.35;;;24.70;99.90;;;;;;4953987;28;20032;-61
2022/07/14 09:19:08;;;;;;;7.93;4.65;;;25.10;99.90;;;;;;4954064;28;20364;-63
2022/07/14 09:21:36;;;;;;;5.53;3.53;;;25.30;99.90;;;;;;4955188;28;20019;-63
2022/07/14 09:25:02;;;;;;;4.72;3.33;;;25.60;99.90;;;;;;4955123;28;20019;-61
2022/07/14 09:27:47;;;;;;;7.83;4.33;;;25.80;99.90;;;;;;4955470;28;20027;-57
2022/07/14 09:30:16;;;;;;;5.35;2.78;;;26.00;99.90;;;;;;4953719;28;20319;-61
2022/07/14 09:32:55;;;;;;;8.23;2.90;;;26.30;99.90;;;;;;4955478;28;20031;-55
2022/07/14 09:35:58;;;;;;;5.68;3.08;;;26.90;99.90;;;;;;4964344;28;20027;-54
2022/07/14 09:41:52;;;;;;;7.72;3.05;;;28.20;99.90;;;;;;4955226;28;20066;-56
2022/07/14 09:44:21;;;;;;;3.22;2.72;;;29.40;99.90;;;;;;4954886;28;20027;-55
2022/07/14 09:46:54;;;;;;;4.45;2.58;;;30.50;99.90;;;;;;4969727;28;20038;-51
2022/07/14 09:49:30;;;;;;;3.85;2.75;;;31.10;99.90;;;;;;4953938;28;20067;-55
2022/07/14 09:52:18;;;;;;;4.78;2.85;;;31.20;99.90;;;;;;4955150;28;20032;-52
2022/07/14 09:54:47;;;;;;;11.45;3.10;;;32.30;99.90;;;;;;4955031;28;20027;-55
2022/07/14 09:57:13;;;;;;;4.25;2.95;;;32.90;99.90;;;;;;4954854;28;20027;-54
2022/07/14 09:59:48;;;;;;;8.25;2.88;;;31.70;99.90;;;;;;4953863;28;20026;-56
2022/07/14 10:02:22;;;;;;;6.38;3.28;;;31.40;99.90;;;;;;4955007;28;20030;-58
2022/07/14 10:05:01;;;;;;;4.30;2.50;;;31.70;99.90;;;;;;4954828;28;20479;-58
2022/07/14 10:07:32;;;;;;;3.67;2.97;;;31.80;99.90;;;;;;4953842;28;20051;-58
2022/07/14 10:10:04;;;;;;;;;;;31.70;99.90;;;;;;4954312;28;20034;-53
2022/07/14 10:12:42;;;;;;;3.65;3.03;;;31.20;99.90;;;;;;4953796;28;19907;-57
2022/07/14 10:15:13;;;;;;;5.93;2.63;;;32.10;99.90;;;;;;4953539;28;20027;-55
2022/07/14 10:17:41;;;;;;;5.47;2.78;;;33.30;97.10;;;;;;4954551;28;20027;-56
2022/07/14 10:20:10;;;;;;;3.28;2.50;;;34.90;94.80;;;;;;4953404;28;20110;-56
2022/07/14 10:22:36;;;;;;;3.38;2.92;;;36.20;92.70;;;;;;4953593;28;20023;-58
2022/07/14 10:25:08;;;;;;;5.20;2.70;;;36.90;89.80;;;;;;4953798;28;20070;-57
2022/07/14 10:27:37;;;;;;;5.07;2.75;;;37.10;84.40;;;;;;4953593;28;20050;-55
2022/07/14 10:30:03;;;;;;;3.03;2.23;;;37.30;79.80;;;;;;4957575;28;20023;-56
2022/07/14 10:32:44;;;;;;;4.80;2.53;;;37.00;78.10;;;;;;4958584;28;20267;-53
2022/07/14 10:35:33;;;;;;;7.13;3.22;;;36.30;80.40;;;;;;4957257;28;20030;-53
2022/07/14 10:38:26;;;;;;;8.20;2.25;;;35.60;80.20;;;;;;4957236;28;20039;-55
2022/07/14 10:41:16;;;;;;;5.32;2.22;;;34.90;77.70;;;;;;4957902;28;20051;-54
2022/07/14 10:44:35;;;;;;;3.90;2.25;;;34.40;78.70;;;;;;4957871;28;20028;-56
2022/07/14 10:47:11;;;;;;;3.88;2.20;;;34.30;77.50;;;;;;4958175;28;20042;-55
2022/07/14 10:50:09;;;;;;;3.13;2.45;;;34.20;78.40;;;;;;4956494;28;20027;-56
2022/07/14 10:52:38;;;;;;;6.05;2.75;;;34.10;77.00;;;;;;4956388;29;20031;-53
2022/07/14 10:55:29;;;;;;;3.55;2.30;;;33.90;78.00;;;;;;4956418;29;20046;-57
2022/07/14 10:58:05;;;;;;;6.90;2.78;;;33.70;77.50;;;;;;4957438;28;20402;-58
2022/07/14 11:00:55;;;;;;;4.18;2.75;;;33.60;78.20;;;;;;4961198;28;20026;-57
2022/07/14 11:06:36;;;;;;;3.85;1.90;;;32.70;79.40;;;;;;4976907;28;20043;-55
2022/07/14 11:09:22;;;;;;;2.83;2.15;;;32.60;79.00;;;;;;4976510;28;20077;-57
2022/07/14 11:12:25;;;;;;;6.40;2.33;;;32.40;78.80;;;;;;4975702;28;20027;-56
2022/07/14 11:14:50;;;;;;;4.00;2.63;;;32.20;75.20;;;;;;4975482;28;20525;-56
2022/07/14 11:17:37;;;;;;;5.88;2.42;;;32.10;72.90;;;;;;4975368;28;20097;-57
2022/07/14 11:20:05;;;;;;;2.40;1.88;;;31.80;74.20;;;;;;4976485;28;20087;-58
2022/07/14 11:22:31;;;;;;;7.97;2.20;;;31.70;74.10;;;;;;4976483;28;20051;-56
2022/07/14 11:24:59;;;;;;;4.50;2.17;;;31.60;73.10;;;;;;4975708;28;20050;-58
2022/07/14 11:27:48;;;;;;;2.38;1.80;;;31.40;75.80;;;;;;4977054;28;20027;-56
2022/07/14 11:30:17;;;;;;;3.78;2.00;;;31.40;71.10;;;;;;4975630;28;20023;-57
2022/07/14 11:32:43;;;;;;;3.40;1.50;;;31.20;75.40;;;;;;4976632;28;20432;-58
2022/07/14 11:38:00;;;;;;;3.40;1.50;;;30.90;71.50;;;;;;4976664;28;20041;-57
2022/07/14 11:40:49;;;;;;;1.90;1.35;;;30.90;72.10;;;;;;4974663;28;20023;-58
2022/07/14 11:43:42;;;;;;;4.25;1.58;;;30.90;71.20;;;;;;4975779;28;20034;-54
2022/07/14 11:46:10;;;;;;;1.20;1.10;;;30.30;64.50;;;;;;4976312;28;20085;-57
2022/07/14 11:48:41;;;;;;;2.78;1.58;;;30.10;70.40;;;;;;4974933;28;20022;-56
2022/07/14 11:51:11;;;;;;;1.80;1.38;;;30.30;68.10;;;;;;4974932;28;20027;-57
2022/07/14 11:53:38;;;;;;;2.10;1.40;;;30.50;63.70;;;;;;4976216;28;20038;-55
2022/07/14 11:56:06;;;;;;;2.45;1.35;;;30.60;63.90;;;;;;4974801;28;20034;-56
2022/07/14 11:58:32;;;;;;;4.28;1.35;;;30.60;62.60;;;;;;4966140;28;20069;-57
2022/07/14 12:01:00;;;;;;;1.27;1.17;;;30.60;63.80;;;;;;4956344;28;20023;-58
2022/07/14 12:06:48;;;;;;;4.63;1.20;;;30.70;67.00;;;;;;4956353;28;20163;-58
2022/07/14 12:09:26;;;;;;;2.08;1.40;;;30.60;66.90;;;;;;4955483;28;20019;-57
2022/07/14 12:11:53;;;;;;;1.75;1.38;;;30.50;67.30;;;;;;4956351;28;20035;-58
2022/07/14 12:14:19;;;;;;;1.58;1.20;;;30.50;66.30;;;;;;4955094;28;20019;-53
2022/07/14 12:16:46;;;;;;;3.78;1.52;;;30.50;67.00;;;;;;4956202;28;20501;-55
2022/07/14 12:19:12;;;;;;;3.53;1.40;;;30.40;68.10;;;;;;4954931;28;20023;-56
2022/07/14 12:21:38;;;;;;;3.08;1.48;;;30.20;68.70;;;;;;4955168;28;20467;-58
2022/07/14 12:24:06;;;;;;;4.85;1.52;;;30.10;69.90;;;;;;4956168;28;20114;-52
2022/07/14 12:26:33;;;;;;;6.25;1.70;;;30.10;70.00;;;;;;4956079;28;20095;-57
2022/07/14 12:29:40;;;;;;;8.52;1.70;;;30.00;70.80;;;;;;4956310;28;20031;-59
2022/07/14 12:32:07;;;;;;;4.53;1.70;;;29.60;70.90;;;;;;4954731;28;20032;-57
2022/07/14 12:34:33;;;;;;;2.88;1.88;;;29.50;71.30;;;;;;4955913;28;20379;-61
2022/07/14 12:37:01;;;;;;;4.82;1.60;;;29.30;72.80;;;;;;4954500;28;20034;-58
2022/07/14 12:39:30;;;;;;;4.32;1.48;;;29.10;73.80;;;;;;4955901;28;20050;-58
2022/07/14 12:45:18;;;;;;;6.53;1.80;;;28.90;76.00;;;;;;4956139;29;20054;-59
2022/07/14 12:47:51;;;;;;;3.03;1.80;;;28.70;75.20;;;;;;4954714;28;20031;-59
2022/07/14 12:50:28;;;;;;;2.45;1.58;;;28.60;76.90;;;;;;4956125;28;20023;-54
2022/07/14 12:52:55;;;;;;;2.50;1.52;;;28.60;77.20;;;;;;4975072;28;20031;-59
2022/07/14 12:55:39;;;;;;;2.53;1.73;;;28.50;75.80;;;;;;4973766;28;20019;-59
2022/07/14 12:58:07;;;;;;;3.63;1.88;;;28.60;76.50;;;;;;4973604;28;20033;-58
2022/07/14 13:00:33;;;;;;;2.65;2.05;;;28.50;77.00;;;;;;4973877;28;20039;-56
2022/07/14 13:03:11;;;;;;;6.28;2.10;;;28.50;77.80;;;;;;4973671;28;20065;-58
2022/07/14 13:05:42;;;;;;;2.40;1.90;;;28.50;78.00;;;;;;4973655;28;20085;-55
2022/07/14 13:08:27;;;;;;;2.83;1.90;;;28.50;79.20;;;;;;4974388;28;20045;-60
2022/07/14 13:10:58;;;;;;;2.88;2.20;;;28.70;79.30;;;;;;4973252;28;20031;-58
2022/07/14 13:13:44;;;;;;;;;;;28.80;79.60;;;;;;4975333;28;20061;-57
2022/07/14 13:19:31;;;;;;;3.60;2.30;;;29.10;79.30;;;;;;4955376;29;20106;-57
2022/07/14 13:22:05;;;;;;;2.47;1.90;;;29.30;79.60;;;;;;4954252;29;20067;-58
2022/07/14 13:24:36;;;;;;;4.95;2.83;;;29.20;79.90;;;;;;4971169;28;20028;-58
2022/07/14 13:27:31;;;;;;;3.83;2.15;;;29.30;79.70;;;;;;4969984;28;20081;-59
2022/07/14 13:29:56;;;;;;;8.75;2.83;;;29.20;82.10;;;;;;4953857;29;20067;-57
2022/07/14 13:32:22;;;;;;;5.50;2.63;;;29.30;80.90;;;;;;4955085;28;20419;-58
2022/07/14 13:34:48;;;;;;;3.13;2.63;;;29.40;80.60;;;;;;4973565;28;20065;-58